LFRN/RNS METAR and TAF weather

Enter ICAO airport designator
Station Type Date Time Source
LFRN METAR 2020/11/28 19:30 UTC NOAA

LFRN 281930Z AUTO 06006KT CAVOK 09/07 Q1015 TEMPO 3000 BR


Station Type Date Time Source
LFRN Decoded METAR 2020/11/28 19:30 UTC NOAA

Rennes, France (LFRN) 48-04N 001-44W 37M
Nov 28, 2020 - 02:30 PM EST / 2020.11.28 1930 UTC
Wind: from the ENE (060 degrees) at 7 MPH (6 KT):0
Visibility: greater than 7 mile(s):0
Temperature: 48 F (9 C)
Dew Point: 44 F (7 C)
Relative Humidity: 87%
Pressure (altimeter): 29.97 in. Hg (1015 hPa)
ob: LFRN 281930Z AUTO 06006KT CAVOK 09/07 Q1015 TEMPO 3000 BR
cycle: 19

Station Type Date Time Source
LFRN TAF 2020/11/28 18:21 UTC NOAA

TAF LFRN 281700Z 2818/2918 VRB05KT CAVOK
TEMPO 2820/2908 3000 BR PROB30
TEMPO 2902/2907 0500 FG
TEMPO 2914/2918 03010KT

Example: see airport list